createdAt,value
2023-03-29T00:01:00.954Z,6.30
2023-03-29T00:03:30.914Z,12.23
2023-03-29T00:06:05.785Z,14.68
2023-03-29T00:08:35.387Z,9.77
2023-03-29T00:11:03.674Z,16.38
2023-03-29T00:13:32.239Z,9.75
2023-03-29T00:16:00.668Z,9.23
2023-03-29T00:18:28.982Z,9.43
2023-03-29T00:20:57.570Z,16.27
2023-03-29T00:23:28.279Z,10.73
2023-03-29T00:25:56.962Z,11.57
2023-03-29T00:28:25.568Z,13.30
2023-03-29T00:30:53.808Z,10.02
2023-03-29T00:33:23.996Z,8.10
2023-03-29T00:38:24.242Z,13.00
2023-03-29T00:40:54.024Z,10.70
2023-03-29T00:43:23.160Z,13.90
2023-03-29T00:45:51.419Z,6.97
2023-03-29T00:48:23.874Z,6.40
2023-03-29T00:50:55.523Z,8.75
2023-03-29T00:53:29.015Z,7.53
2023-03-29T00:56:04.714Z,19.52
2023-03-29T00:58:39.387Z,15.25
2023-03-29T01:01:10.994Z,9.85
2023-03-29T01:03:47.377Z,10.88
2023-03-29T01:06:19.421Z,6.07
2023-03-29T01:08:52.302Z,12.82
2023-03-29T01:11:26.790Z,9.13
2023-03-29T01:14:00.348Z,9.15
2023-03-29T01:16:30.507Z,11.07
2023-03-29T01:21:32.455Z,11.52
2023-03-29T01:24:32.395Z,9.25
2023-03-29T01:27:10.054Z,8.82
2023-03-29T01:29:43.257Z,12.48
2023-03-29T01:32:15.838Z,15.68
2023-03-29T01:34:49.838Z,16.10
2023-03-29T01:37:24.926Z,14.45
2023-03-29T01:39:54.127Z,13.85
2023-03-29T01:42:37.644Z,19.48
2023-03-29T01:45:15.252Z,13.38
2023-03-29T01:47:48.895Z,17.10
2023-03-29T01:50:21.185Z,15.40
2023-03-29T01:52:56.516Z,17.98
2023-03-29T01:55:28.675Z,14.85
2023-03-29T01:57:59.727Z,12.93
2023-03-29T02:00:30.731Z,16.23
2023-03-29T02:03:04.704Z,19.52
2023-03-29T02:05:33.539Z,20.20
2023-03-29T02:08:07.294Z,15.98
2023-03-29T02:10:38.028Z,22.27
2023-03-29T02:13:07.258Z,15.65
2023-03-29T02:15:39.943Z,15.93
2023-03-29T02:18:08.446Z,13.38
2023-03-29T02:20:40.819Z,11.65
2023-03-29T02:23:18.249Z,17.25
2023-03-29T02:25:47.506Z,20.05
2023-03-29T02:28:15.981Z,23.73
2023-03-29T02:30:53.628Z,16.23
2023-03-29T02:33:26.454Z,15.27
2023-03-29T02:35:58.902Z,27.80
2023-03-29T02:38:28.641Z,11.18
2023-03-29T02:40:59.394Z,15.95
2023-03-29T02:43:30.375Z,15.77
2023-03-29T02:46:00.541Z,12.30
2023-03-29T02:51:02.805Z,14.10
2023-03-29T02:53:38.125Z,11.88
2023-03-29T02:56:07.487Z,16.02
2023-03-29T02:58:36.785Z,16.75
2023-03-29T03:01:07.830Z,19.30
2023-03-29T03:03:36.103Z,23.10
2023-03-29T03:06:04.998Z,12.98
2023-03-29T03:08:33.356Z,20.60
2023-03-29T03:11:02.224Z,22.33
2023-03-29T03:13:30.973Z,22.40
2023-03-29T03:15:59.078Z,18.92
2023-03-29T03:18:28.936Z,20.42
2023-03-29T03:20:57.989Z,17.27
2023-03-29T03:23:27.695Z,14.40
2023-03-29T03:25:56.748Z,18.70
2023-03-29T03:28:25.475Z,32.95
2023-03-29T03:30:54.288Z,19.95
2023-03-29T03:33:22.736Z,22.42
2023-03-29T03:35:52.816Z,14.63
2023-03-29T03:38:21.093Z,21.88
2023-03-29T03:40:55.966Z,14.25
2023-03-29T03:43:24.560Z,23.30
2023-03-29T03:45:53.078Z,19.85
2023-03-29T03:48:21.632Z,16.13
2023-03-29T03:50:52.879Z,20.55
2023-03-29T03:53:21.697Z,11.50
2023-03-29T03:55:50.444Z,16.17
2023-03-29T03:58:18.939Z,27.48
2023-03-29T04:00:50.389Z,15.27
2023-03-29T04:03:19.367Z,18.30
2023-03-29T04:05:48.875Z,25.30
2023-03-29T04:08:18.505Z,24.40
2023-03-29T04:10:53.530Z,11.63
2023-03-29T04:13:21.910Z,10.60
2023-03-29T04:15:54.355Z,14.13
2023-03-29T04:18:23.060Z,15.00
2023-03-29T04:20:51.770Z,22.45
2023-03-29T04:23:22.133Z,10.10
2023-03-29T04:25:50.316Z,19.08
2023-03-29T04:28:18.389Z,21.88
2023-03-29T04:30:47.350Z,15.90
2023-03-29T04:33:15.483Z,16.48
2023-03-29T04:35:46.343Z,19.15
2023-03-29T04:38:14.566Z,17.45
2023-03-29T04:40:44.476Z,17.00
2023-03-29T04:43:12.760Z,26.60
2023-03-29T04:45:40.933Z,21.80
2023-03-29T04:48:09.179Z,14.45
2023-03-29T04:50:37.788Z,20.10
2023-03-29T04:53:06.096Z,25.35
2023-03-29T04:55:34.155Z,16.35
2023-03-29T04:58:04.980Z,19.00
2023-03-29T05:00:33.506Z,13.93
2023-03-29T05:03:01.648Z,12.13
2023-03-29T05:05:29.893Z,24.00
2023-03-29T05:07:59.092Z,11.38
2023-03-29T05:10:27.295Z,8.27
2023-03-29T05:12:56.302Z,12.05
2023-03-29T05:15:25.934Z,12.93
2023-03-29T05:17:54.491Z,19.52
2023-03-29T05:20:22.902Z,17.42
2023-03-29T05:22:51.052Z,9.68
2023-03-29T05:25:19.745Z,8.60
2023-03-29T05:27:48.148Z,13.77
2023-03-29T05:30:16.938Z,10.15
2023-03-29T05:32:47.067Z,17.65
2023-03-29T05:37:43.659Z,13.43
2023-03-29T05:40:13.503Z,11.50
2023-03-29T05:42:41.932Z,12.18
2023-03-29T05:45:11.741Z,12.98
2023-03-29T05:47:39.925Z,8.20
2023-03-29T05:50:11.302Z,13.73
2023-03-29T05:52:41.141Z,17.02
2023-03-29T05:55:10.478Z,13.68
2023-03-29T05:57:38.922Z,12.90
2023-03-29T06:00:19.725Z,26.40
2023-03-29T06:02:47.938Z,22.17
2023-03-29T06:05:18.352Z,21.42
2023-03-29T06:07:48.891Z,18.38
2023-03-29T06:10:18.107Z,26.08
2023-03-29T06:12:47.012Z,23.00
2023-03-29T06:15:16.313Z,27.02
2023-03-29T06:17:46.589Z,22.15
2023-03-29T06:22:46.813Z,24.10
2023-03-29T06:25:17.757Z,37.45
2023-03-29T06:27:46.801Z,19.27
2023-03-29T06:30:15.799Z,26.42
2023-03-29T06:32:44.363Z,23.25
2023-03-29T06:35:13.114Z,29.67
2023-03-29T06:37:49.866Z,33.10
2023-03-29T06:40:21.397Z,35.38
2023-03-29T06:42:51.059Z,26.73
2023-03-29T06:45:21.208Z,34.20
2023-03-29T06:47:50.933Z,24.73
2023-03-29T06:50:19.772Z,26.88
2023-03-29T06:52:48.691Z,27.17
2023-03-29T06:55:17.925Z,27.23
2023-03-29T06:57:48.084Z,17.20
2023-03-29T07:00:19.213Z,18.88
2023-03-29T07:02:47.975Z,15.85
2023-03-29T07:05:16.774Z,28.60
2023-03-29T07:07:57.093Z,21.45
2023-03-29T07:10:32.484Z,15.35
2023-03-29T07:13:02.718Z,16.48
2023-03-29T07:15:31.073Z,16.27
2023-03-29T07:17:59.413Z,20.65
2023-03-29T07:20:28.401Z,13.70
2023-03-29T07:22:57.989Z,12.80
2023-03-29T07:25:27.633Z,16.02
2023-03-29T07:27:55.938Z,10.85
2023-03-29T07:30:31.632Z,7.55
2023-03-29T07:33:01.024Z,15.48
2023-03-29T07:35:30.869Z,10.95
2023-03-29T07:37:59.263Z,10.70
2023-03-29T07:40:30.620Z,9.63
2023-03-29T07:42:59.857Z,9.90
2023-03-29T07:45:29.986Z,7.83
2023-03-29T07:50:27.650Z,7.88
2023-03-29T07:52:57.031Z,7.20
2023-03-29T07:55:25.362Z,3.75
2023-03-29T07:57:53.756Z,5.65
2023-03-29T08:00:25.412Z,5.00
2023-03-29T08:02:55.952Z,3.63
2023-03-29T08:05:37.974Z,5.32
2023-03-29T08:08:10.793Z,5.22
2023-03-29T08:10:39.878Z,4.03
2023-03-29T08:13:09.430Z,4.57
2023-03-29T08:15:39.620Z,7.28
2023-03-29T08:20:37.756Z,3.35
2023-03-29T08:23:06.675Z,5.15
2023-03-29T08:25:38.365Z,5.20
2023-03-29T08:28:06.472Z,7.20
2023-03-29T08:30:34.668Z,3.92
2023-03-29T08:33:02.815Z,4.35
2023-03-29T08:35:32.362Z,7.57
2023-03-29T08:38:00.832Z,2.85
2023-03-29T08:40:31.266Z,3.78
2023-03-29T08:43:19.902Z,5.72
2023-03-29T08:46:00.135Z,2.22
2023-03-29T08:48:32.521Z,4.95
2023-03-29T08:51:09.934Z,1.52
2023-03-29T08:53:45.164Z,4.63
2023-03-29T08:56:16.384Z,2.25
2023-03-29T08:58:46.760Z,0.98
2023-03-29T09:01:15.197Z,1.80
2023-03-29T09:03:48.650Z,0.45
2023-03-29T09:06:23.248Z,6.55
2023-03-29T09:08:53.445Z,3.80
2023-03-29T09:14:25.185Z,1.70
2023-03-29T09:17:02.604Z,1.52
2023-03-29T09:19:40.085Z,2.75
2023-03-29T09:22:17.380Z,2.47
2023-03-29T09:24:58.991Z,5.30
2023-03-29T09:27:31.454Z,4.05
2023-03-29T09:30:13.770Z,4.63
2023-03-29T09:32:53.277Z,4.25
2023-03-29T09:35:24.688Z,4.45
2023-03-29T09:37:55.620Z,5.45
2023-03-29T09:40:28.590Z,4.15
2023-03-29T09:42:58.608Z,3.67
2023-03-29T09:45:26.759Z,3.28
2023-03-29T09:47:58.728Z,6.75
2023-03-29T09:50:34.218Z,4.78
2023-03-29T09:53:05.121Z,8.90
2023-03-29T09:55:36.648Z,9.38
2023-03-29T09:58:14.493Z,6.85
2023-03-29T10:00:43.338Z,9.23
2023-03-29T10:03:11.511Z,5.20
2023-03-29T10:05:40.196Z,12.80
2023-03-29T10:08:20.434Z,8.02
2023-03-29T10:13:24.488Z,6.10
2023-03-29T10:16:25.308Z,7.55
2023-03-29T10:19:10.638Z,6.13
2023-03-29T10:21:45.655Z,7.03
2023-03-29T10:24:23.658Z,6.10
2023-03-29T10:26:56.201Z,6.95
2023-03-29T10:29:37.708Z,13.70
2023-03-29T10:32:29.852Z,6.78
2023-03-29T10:35:09.700Z,4.32
2023-03-29T10:37:45.172Z,7.05
2023-03-29T10:40:35.140Z,4.43
2023-03-29T10:43:14.772Z,5.65
2023-03-29T10:45:43.931Z,7.75
2023-03-29T10:48:16.154Z,5.78
2023-03-29T10:50:53.544Z,9.27
2023-03-29T10:53:28.029Z,12.73
2023-03-29T10:56:10.444Z,6.25
2023-03-29T10:58:58.198Z,7.75
2023-03-29T11:01:34.916Z,8.05
2023-03-29T11:04:16.140Z,10.25
2023-03-29T11:06:50.405Z,6.35
2023-03-29T11:09:29.780Z,10.88
2023-03-29T11:12:16.233Z,12.23
2023-03-29T11:15:00.632Z,10.98
2023-03-29T11:17:43.316Z,12.77
2023-03-29T11:20:25.585Z,10.38
2023-03-29T11:23:01.565Z,9.70
2023-03-29T11:25:42.240Z,14.55
2023-03-29T11:28:28.782Z,5.13
2023-03-29T11:31:07.031Z,9.90
2023-03-29T11:33:53.794Z,11.05
2023-03-29T11:36:33.274Z,7.97
2023-03-29T11:39:09.714Z,14.43
2023-03-29T11:41:41.944Z,10.40
2023-03-29T11:44:19.003Z,9.55
2023-03-29T11:46:51.874Z,8.48
2023-03-29T11:49:24.628Z,7.00
2023-03-29T11:51:58.111Z,4.90
2023-03-29T11:54:31.885Z,3.42
2023-03-29T11:57:06.077Z,3.92
2023-03-29T11:59:41.813Z,3.90
2023-03-29T12:02:17.917Z,5.43
2023-03-29T12:04:57.601Z,5.63
2023-03-29T12:07:31.400Z,5.35
2023-03-29T12:10:04.256Z,7.75
2023-03-29T12:12:43.962Z,5.05
2023-03-29T12:15:20.540Z,3.70
2023-03-29T12:17:59.481Z,2.70
2023-03-29T12:20:31.828Z,2.60
2023-03-29T12:23:00.818Z,3.80
2023-03-29T12:25:35.890Z,2.33
2023-03-29T12:28:19.448Z,3.72
2023-03-29T12:30:57.353Z,5.78
2023-03-29T12:33:47.408Z,1.98
2023-03-29T12:36:31.227Z,6.47
2023-03-29T12:38:59.826Z,4.05
2023-03-29T12:41:29.730Z,6.78
2023-03-29T12:44:10.238Z,3.38
2023-03-29T12:46:42.683Z,6.28
2023-03-29T12:49:20.487Z,4.07
2023-03-29T12:51:49.918Z,5.28
2023-03-29T12:54:24.976Z,3.72
2023-03-29T12:57:00.547Z,5.20
2023-03-29T12:59:38.588Z,7.40
2023-03-29T13:05:21.199Z,7.07
2023-03-29T13:07:49.809Z,8.05
2023-03-29T13:10:45.295Z,11.15
2023-03-29T13:13:18.875Z,11.23
2023-03-29T13:15:47.483Z,13.40
2023-03-29T13:18:32.365Z,14.68
2023-03-29T13:21:09.480Z,6.95
2023-03-29T13:23:50.190Z,8.35
2023-03-29T13:26:32.332Z,12.45
2023-03-29T13:29:18.440Z,12.23
2023-03-29T13:31:52.897Z,12.27
2023-03-29T13:34:32.318Z,14.55
2023-03-29T13:37:11.108Z,15.93
2023-03-29T13:39:50.214Z,14.23
2023-03-29T13:42:21.854Z,10.93
2023-03-29T13:44:50.502Z,11.35
2023-03-29T13:47:48.982Z,15.07
2023-03-29T13:50:37.021Z,20.25
2023-03-29T13:53:13.890Z,8.95
2023-03-29T13:55:48.834Z,23.48
2023-03-29T13:58:31.713Z,18.27
2023-03-29T14:01:11.231Z,12.73
2023-03-29T14:03:44.916Z,12.40
2023-03-29T14:06:16.935Z,16.17
2023-03-29T14:08:51.313Z,10.05
2023-03-29T14:11:26.738Z,18.83
2023-03-29T14:13:58.796Z,17.75
2023-03-29T14:16:29.554Z,20.70
2023-03-29T14:19:00.459Z,21.77
2023-03-29T14:21:28.569Z,22.20
2023-03-29T14:24:01.684Z,15.45
2023-03-29T14:26:32.610Z,13.55
2023-03-29T14:29:02.595Z,16.23
2023-03-29T14:31:34.397Z,20.95
2023-03-29T14:34:05.778Z,18.88
2023-03-29T14:36:35.218Z,11.27
2023-03-29T14:39:09.630Z,11.77
2023-03-29T14:41:39.435Z,19.55
2023-03-29T14:44:09.203Z,16.35
2023-03-29T14:46:38.182Z,12.45
2023-03-29T14:49:07.506Z,16.55
2023-03-29T14:51:37.068Z,12.13
2023-03-29T14:54:07.749Z,12.48
2023-03-29T14:56:36.224Z,15.55
2023-03-29T14:59:05.939Z,16.92
2023-03-29T15:01:34.130Z,16.15
2023-03-29T15:04:06.309Z,14.82
2023-03-29T15:06:39.980Z,12.32
2023-03-29T15:09:14.246Z,16.83
2023-03-29T15:11:42.420Z,19.00
2023-03-29T15:14:17.221Z,18.90
2023-03-29T15:16:48.382Z,22.25
2023-03-29T15:19:19.696Z,17.63
2023-03-29T15:21:50.422Z,20.80
2023-03-29T15:24:25.210Z,16.55
2023-03-29T15:27:03.115Z,13.25
2023-03-29T15:29:42.131Z,15.02
2023-03-29T15:32:11.124Z,20.50
2023-03-29T15:34:39.590Z,17.60
2023-03-29T15:37:08.207Z,16.05
2023-03-29T15:39:44.066Z,17.80
2023-03-29T15:42:12.871Z,19.42
2023-03-29T15:44:41.413Z,24.50
2023-03-29T15:47:10.995Z,20.98
2023-03-29T15:49:39.215Z,18.17
2023-03-29T15:52:07.538Z,21.25
2023-03-29T15:54:38.038Z,11.63
2023-03-29T15:57:09.515Z,27.48
2023-03-29T15:59:37.808Z,21.38
2023-03-29T16:02:07.978Z,18.02
2023-03-29T16:07:08.330Z,13.10
2023-03-29T16:09:38.482Z,13.75
2023-03-29T16:14:35.462Z,17.40
2023-03-29T16:17:04.009Z,21.60
2023-03-29T16:19:33.254Z,26.40
2023-03-29T16:22:07.617Z,22.80
2023-03-29T16:24:41.665Z,16.70
2023-03-29T16:27:09.966Z,20.23
2023-03-29T16:29:39.355Z,24.38
2023-03-29T16:32:07.690Z,17.38
2023-03-29T16:34:39.177Z,18.80
2023-03-29T16:37:07.721Z,15.20
2023-03-29T16:39:37.945Z,24.08
2023-03-29T16:42:06.411Z,25.50
2023-03-29T16:44:34.511Z,16.77
2023-03-29T16:47:02.927Z,23.75
2023-03-29T16:49:30.985Z,25.65
2023-03-29T16:52:00.135Z,16.17
2023-03-29T16:54:29.780Z,29.13
2023-03-29T16:56:59.435Z,12.63
2023-03-29T16:59:27.843Z,16.95
2023-03-29T17:01:56.042Z,16.48
2023-03-29T17:04:24.332Z,14.77
2023-03-29T17:06:53.697Z,17.40
2023-03-29T17:09:21.961Z,13.80
2023-03-29T17:11:50.345Z,21.45
2023-03-29T17:14:19.953Z,17.08
2023-03-29T17:16:48.282Z,18.17
2023-03-29T17:19:16.420Z,16.90
2023-03-29T17:21:45.015Z,19.45
2023-03-29T17:24:13.082Z,15.15
2023-03-29T17:26:43.240Z,18.27
2023-03-29T17:29:12.654Z,14.13
2023-03-29T17:31:47.797Z,19.23
2023-03-29T17:34:16.637Z,26.88
2023-03-29T17:36:45.834Z,18.40
2023-03-29T17:39:15.423Z,14.17
2023-03-29T17:41:46.121Z,12.93
2023-03-29T17:44:14.786Z,12.52
2023-03-29T17:46:44.460Z,24.42
2023-03-29T17:49:13.207Z,17.67
2023-03-29T17:51:41.441Z,15.60
2023-03-29T17:54:09.699Z,14.75
2023-03-29T17:56:37.918Z,21.55
2023-03-29T17:59:06.204Z,21.90
2023-03-29T18:01:36.400Z,20.73
2023-03-29T18:04:08.316Z,14.43
2023-03-29T18:06:36.580Z,18.58
2023-03-29T18:09:05.740Z,21.75
2023-03-29T18:11:33.908Z,14.45
2023-03-29T18:14:02.233Z,27.90
2023-03-29T18:16:30.707Z,20.98
2023-03-29T18:18:58.861Z,22.73
2023-03-29T18:21:28.707Z,20.63
2023-03-29T18:23:57.175Z,15.18
2023-03-29T18:26:25.889Z,20.33
2023-03-29T18:28:54.523Z,20.00
2023-03-29T18:31:22.730Z,19.42
2023-03-29T18:33:51.175Z,17.83
2023-03-29T18:36:19.421Z,16.75
2023-03-29T18:38:49.226Z,19.17
2023-03-29T18:41:17.391Z,15.07
2023-03-29T18:43:46.981Z,15.93
2023-03-29T18:46:15.212Z,14.75
2023-03-29T18:48:43.606Z,18.98
2023-03-29T18:51:13.519Z,16.88
2023-03-29T18:53:44.395Z,21.05
2023-03-29T18:56:14.201Z,17.40
2023-03-29T18:58:42.271Z,19.10
2023-03-29T19:01:11.065Z,17.02
2023-03-29T19:03:39.678Z,18.33
2023-03-29T19:06:09.176Z,20.73
2023-03-29T19:08:39.798Z,15.85
2023-03-29T19:11:09.914Z,15.07
2023-03-29T19:16:08.150Z,13.95
2023-03-29T19:18:36.813Z,11.38
2023-03-29T19:21:05.233Z,18.33
2023-03-29T19:23:33.504Z,17.30
2023-03-29T19:26:04.075Z,22.02
2023-03-29T19:28:32.833Z,21.17
2023-03-29T19:31:03.286Z,18.42
2023-03-29T19:33:31.686Z,17.70
2023-03-29T19:35:59.946Z,14.25
2023-03-29T19:38:28.187Z,15.38
2023-03-29T19:40:56.744Z,17.42
2023-03-29T19:43:25.264Z,16.27
2023-03-29T19:45:53.389Z,12.32
2023-03-29T19:48:24.358Z,11.10
2023-03-29T19:50:53.116Z,13.00
2023-03-29T19:53:21.341Z,20.83
2023-03-29T19:55:50.133Z,20.50
2023-03-29T19:58:18.382Z,25.23
2023-03-29T20:00:47.082Z,22.00
2023-03-29T20:03:15.907Z,16.77
2023-03-29T20:05:45.578Z,12.20
2023-03-29T20:08:14.117Z,17.83
2023-03-29T20:10:42.592Z,13.95
2023-03-29T20:13:10.891Z,18.92
2023-03-29T20:15:41.513Z,19.90
2023-03-29T20:18:09.599Z,20.77
2023-03-29T20:20:37.750Z,16.40
2023-03-29T20:23:07.292Z,13.20
2023-03-29T20:25:36.361Z,12.40
2023-03-29T20:28:06.705Z,11.07
2023-03-29T20:30:35.211Z,21.10
2023-03-29T20:33:04.801Z,15.07
2023-03-29T20:35:33.308Z,22.35
2023-03-29T20:38:01.460Z,18.17
2023-03-29T20:40:31.768Z,15.38
2023-03-29T20:43:02.946Z,14.63
2023-03-29T20:45:35.117Z,16.45
2023-03-29T20:48:11.948Z,12.65
2023-03-29T20:50:40.377Z,23.23
2023-03-29T20:53:09.595Z,17.52
2023-03-29T20:55:39.335Z,23.23
2023-03-29T20:58:08.005Z,17.40
2023-03-29T21:00:40.541Z,26.50
2023-03-29T21:03:09.681Z,14.02
2023-03-29T21:05:39.524Z,16.85
2023-03-29T21:08:23.918Z,19.23
2023-03-29T21:10:53.374Z,19.00
2023-03-29T21:13:21.696Z,17.95
2023-03-29T21:15:52.386Z,15.57
2023-03-29T21:18:21.509Z,17.60
2023-03-29T21:20:49.754Z,15.88
2023-03-29T21:23:18.242Z,21.25
2023-03-29T21:25:46.762Z,20.67
2023-03-29T21:28:31.838Z,21.00
2023-03-29T21:31:00.007Z,28.10
2023-03-29T21:33:28.165Z,23.85
2023-03-29T21:35:56.282Z,23.83
2023-03-29T21:38:24.333Z,22.27
2023-03-29T21:40:52.448Z,16.52
2023-03-29T21:43:22.224Z,30.48
2023-03-29T21:45:50.438Z,20.38
2023-03-29T21:48:19.110Z,21.85
2023-03-29T21:50:50.049Z,23.70
2023-03-29T21:53:18.517Z,29.92
2023-03-29T21:55:49.986Z,15.80
2023-03-29T21:58:18.985Z,20.25
2023-03-29T22:00:49.438Z,23.45
2023-03-29T22:03:18.383Z,16.08
2023-03-29T22:05:57.594Z,17.77
2023-03-29T22:08:26.508Z,32.42
2023-03-29T22:10:58.289Z,22.20
2023-03-29T22:13:29.022Z,23.65
2023-03-29T22:16:00.431Z,26.13
2023-03-29T22:18:42.296Z,23.13
2023-03-29T22:21:13.306Z,22.48
2023-03-29T22:23:42.333Z,40.28
2023-03-29T22:26:12.621Z,24.83
2023-03-29T22:28:41.936Z,27.70
2023-03-29T22:31:13.686Z,28.95
2023-03-29T22:33:42.675Z,28.58
2023-03-29T22:36:16.084Z,26.95
2023-03-29T22:38:44.606Z,20.33
2023-03-29T22:41:12.925Z,32.20
2023-03-29T22:43:41.616Z,32.13
2023-03-29T22:46:13.333Z,21.38
2023-03-29T22:48:41.850Z,32.30
2023-03-29T22:51:10.220Z,34.88
2023-03-29T22:53:38.821Z,18.75
2023-03-29T22:56:09.466Z,33.63
2023-03-29T22:58:38.144Z,20.83
2023-03-29T23:01:07.430Z,20.33
2023-03-29T23:03:38.028Z,20.73
2023-03-29T23:06:08.083Z,24.77
2023-03-29T23:08:36.478Z,20.02
2023-03-29T23:11:05.805Z,34.85
2023-03-29T23:13:35.848Z,37.03
2023-03-29T23:16:04.961Z,32.03
2023-03-29T23:18:34.925Z,29.02
2023-03-29T23:21:06.791Z,39.47
2023-03-29T23:23:35.301Z,24.80
2023-03-29T23:26:04.050Z,28.30
2023-03-29T23:28:34.523Z,31.75
2023-03-29T23:31:05.144Z,23.23
2023-03-29T23:33:35.782Z,29.05
2023-03-29T23:36:07.688Z,20.45
2023-03-29T23:38:38.874Z,17.27
2023-03-29T23:41:10.921Z,26.85
2023-03-29T23:43:41.623Z,20.13
2023-03-29T23:46:13.236Z,22.85
2023-03-29T23:48:41.670Z,20.50
2023-03-29T23:51:12.000Z,35.22
2023-03-29T23:53:40.293Z,17.70
2023-03-29T23:56:09.368Z,16.33
2023-03-29T23:58:39.145Z,25.55
